Wray Municipal Airport, CO

8:00 AM MDT on May 24, 2018 (GMT -0600)
Wray Municipal Airport

Weather History for K2V5 - April, 2014

Change the Weather History Date:

Thursday, April 24, 2014

  Actual Average (KSYF) Record (KSYF)
Temperature  
Mean Temperature 56 °F -  
Max Temperature 69 °F 72 °F 73 °F (2016)
Min Temperature 42 °F 39 °F 22 °F (2013)
Degree Days  
Heating Degree Days 10    
Growing Degree Days 6 (Base 50)    
Moisture  
Dew Point 20 °F    
Average Humidity 29    
Maximum Humidity 66    
Minimum Humidity 11    
Precipitation  
Precipitation 0.00 in - - ()
Sea Level Pressure  
Sea Level Pressure 29.90 in    
Wind  
Wind Speed 16 mph (WNW)    
Max Wind Speed 30 mph    
Max Gust Speed 37 mph    
Visibility 10 miles    
Events      
Averages and records for this station are not official NWS values.
T = Trace of Precipitation, MM = Missing Value Source: NWS Daily Summary

Daily Weather History Graph

Daily Weather History Graph

Search for Another Location

Airport or City:

Astronomy

Apr. 24, 2014 Rise Set
Actual Time 5:57 AM MDT 7:36 PM MDT
Civil Twilight 5:29 AM MDT 8:05 PM MDT
Nautical Twilight 4:54 AM MDT 8:40 PM MDT
Astronomical Twilight 4:17 AM MDT 9:17 PM MDT
Moon 3:10 AM MDT 2:54 PM MDT
Length of Visible Light 14h 36m
Length of Day
13h 38m
Waning Crescent, 24% of the Moon is Illuminated
Apr 24
Waning Crescent
Apr 29
New
May 6
First Quarter
May 14
Full
May 21
Last Quarter

Hourly Weather History & Observations

Time (MDT) Temp. Windchill Dew Point Humidity Pressure Visibility Wind Dir Wind Speed Gust Speed Precip Events Conditions
12:15 AM 55.6 °F - 19.8 °F 25% 29.86 in 10.0 mi NW 29.9 mph 36.8 mph N/A   Overcast
12:35 AM 55.8 °F - 18.0 °F 23% 29.83 in 10.0 mi NNW 15.0 mph 24.2 mph N/A   Overcast
1:15 AM 54.9 °F - 17.2 °F 23% 29.83 in 10.0 mi WNW 11.5 mph - N/A   Overcast
1:35 AM 54.7 °F - 16.0 °F 22% 29.81 in 10.0 mi WNW 16.1 mph 20.7 mph N/A   Overcast
1:55 AM 54.1 °F - 16.0 °F 22% 29.83 in 10.0 mi NW 19.6 mph 26.5 mph N/A   Overcast
2:15 AM 52.7 °F - 28.0 °F 39% 29.85 in 10.0 mi NNW 21.9 mph 29.9 mph N/A   Overcast
2:35 AM 51.3 °F - 32.9 °F 50% 29.85 in 10.0 mi NNW 20.7 mph 28.8 mph N/A   Overcast
3:15 AM 50.2 °F - 33.4 °F 53% 29.87 in 10.0 mi NNW 15.0 mph 23.0 mph N/A   Overcast
3:35 AM 49.5 °F - 34.9 °F 57% 29.89 in 10.0 mi NNW 13.8 mph 20.7 mph N/A   Overcast
3:55 AM 48.7 °F - 35.6 °F 60% 29.89 in 10.0 mi NNW 11.5 mph - N/A   Overcast
4:15 AM 48.2 °F - 36.5 °F 64% 29.89 in 10.0 mi NW 12.7 mph - N/A   Mostly Cloudy
4:35 AM 47.8 °F - 36.5 °F 65% 29.90 in 10.0 mi NW 12.7 mph - N/A   Mostly Cloudy
4:55 AM 47.3 °F - 36.3 °F 66% 29.91 in 10.0 mi WNW 11.5 mph - N/A   Overcast
5:15 AM 46.6 °F - 35.6 °F 66% 29.90 in 10.0 mi WNW 12.7 mph - N/A   Overcast
5:35 AM 45.9 °F 39.1 °F 33.8 °F 63% 29.92 in 10.0 mi WNW 16.1 mph - N/A   Scattered Clouds
5:55 AM 44.8 °F 38.0 °F 33.3 °F 64% 29.92 in 10.0 mi WNW 15.0 mph - N/A   Clear
6:15 AM 43.5 °F 36.7 °F 32.4 °F 65% 29.93 in 10.0 mi WNW 13.8 mph - N/A   Clear
6:35 AM 42.8 °F 35.8 °F 29.8 °F 60% 29.94 in 10.0 mi WNW 13.8 mph 18.4 mph N/A   Clear
6:55 AM 42.8 °F 35.4 °F 23.7 °F 47% 29.94 in 10.0 mi WNW 15.0 mph - N/A   Clear
7:15 AM 45.7 °F 38.0 °F 19.2 °F 35% 29.95 in 10.0 mi WNW 19.6 mph 25.3 mph N/A   Clear
7:55 AM 48.6 °F - 19.6 °F 32% 29.96 in 10.0 mi NW 21.9 mph 28.8 mph N/A   Clear
8:15 AM 50.9 °F - 20.1 °F 30% 29.96 in 10.0 mi NW 23.0 mph 29.9 mph N/A   Clear
8:35 AM 53.1 °F - 20.5 °F 28% 29.96 in 10.0 mi NW 21.9 mph 27.6 mph N/A   Clear
9:15 AM 55.9 °F - 19.2 °F 24% 29.96 in 10.0 mi NW 23.0 mph 28.8 mph N/A   Clear
9:35 AM 57.4 °F - 19.6 °F 23% 29.97 in 10.0 mi NW 21.9 mph 28.8 mph N/A   Clear
9:55 AM 58.5 °F - 19.0 °F 22% 29.98 in 10.0 mi NW 18.4 mph 24.2 mph N/A   Clear
10:15 AM 59.2 °F - 18.3 °F 20% 29.98 in 10.0 mi NW 16.1 mph 27.6 mph N/A   Clear
10:35 AM 60.4 °F - 14.5 °F 17% 29.98 in 10.0 mi NW 17.3 mph 24.2 mph N/A   Clear
10:55 AM 61.2 °F - 15.3 °F 17% 29.98 in 10.0 mi NW 15.0 mph 25.3 mph N/A   Clear
11:15 AM 62.1 °F - 13.8 °F 15% 29.98 in 10.0 mi WNW 18.4 mph 26.5 mph N/A   Clear
11:35 AM 63.3 °F - 12.6 °F 14% 29.96 in 10.0 mi NW 12.7 mph 23.0 mph N/A   Clear
11:55 AM 63.3 °F - 10.8 °F 13% 29.96 in 10.0 mi NW 13.8 mph 24.2 mph N/A   Clear
12:15 PM 64.2 °F - 11.7 °F 13% 29.95 in 10.0 mi WNW 13.8 mph 25.3 mph N/A   Clear
12:35 PM 64.8 °F - 11.3 °F 12% 29.94 in 10.0 mi NW 17.3 mph 21.9 mph N/A   Clear
12:55 PM 65.7 °F - 10.9 °F 12% 29.94 in 10.0 mi NW 13.8 mph 21.9 mph N/A   Clear
1:15 PM 66.7 °F - 10.9 °F 11% 29.93 in 10.0 mi NW 20.7 mph 28.8 mph N/A   Clear
1:35 PM 66.4 °F - 10.2 °F 11% 29.92 in 10.0 mi West 16.1 mph 24.2 mph N/A   Clear
1:55 PM 67.5 °F - 11.5 °F 11% 29.91 in 10.0 mi West 9.2 mph 23.0 mph N/A   Clear
2:15 PM 67.8 °F - 11.5 °F 11% 29.91 in 10.0 mi West 9.2 mph 25.3 mph N/A   Clear
2:35 PM 68.4 °F - 12.4 °F 11% 29.90 in 10.0 mi NW 13.8 mph 18.4 mph N/A   Clear
2:55 PM 68.7 °F - 13.3 °F 12% 29.89 in 10.0 mi WNW 11.5 mph 20.7 mph N/A   Clear
3:15 PM 67.5 °F - 12.9 °F 12% 29.89 in 10.0 mi NW 17.3 mph 23.0 mph N/A   Clear
3:35 PM 68.9 °F - 13.1 °F 12% 29.89 in 10.0 mi WNW 13.8 mph 18.4 mph N/A   Clear
3:55 PM 68.2 °F - 13.8 °F 12% 29.88 in 10.0 mi NW 11.5 mph 17.3 mph N/A   Clear
4:15 PM 65.7 °F - 12.9 °F 13% 29.87 in 10.0 mi NW 8.1 mph - N/A   Clear
4:35 PM 68.0 °F - 13.8 °F 12% 29.87 in 10.0 mi West 11.5 mph 23.0 mph N/A   Clear
4:55 PM 66.9 °F - 13.6 °F 13% 29.87 in 10.0 mi North - - N/A   Clear
5:15 PM 69.4 °F - 14.4 °F 12% 29.86 in 10.0 mi WSW 12.7 mph 16.1 mph N/A   Clear
5:35 PM 68.9 °F - 14.7 °F 12% 29.86 in 10.0 mi West 11.5 mph 24.2 mph N/A   Clear
5:55 PM 68.5 °F - 14.7 °F 13% 29.86 in 10.0 mi SW 9.2 mph - N/A   Clear
6:15 PM 67.8 °F - 16.7 °F 14% 29.86 in 10.0 mi SW 13.8 mph - N/A   Clear
6:35 PM 65.7 °F - 17.8 °F 16% 29.86 in 10.0 mi SW 9.2 mph - N/A   Clear
6:55 PM 65.8 °F - 16.3 °F 15% 29.86 in 10.0 mi WSW 8.1 mph - N/A   Clear
7:15 PM 63.1 °F - 19.4 °F 19% 29.86 in 10.0 mi SW 4.6 mph - N/A   Clear
7:35 PM 57.9 °F - 20.3 °F 23% 29.87 in 10.0 mi SW 5.8 mph - N/A   Clear
7:55 PM 55.6 °F - 21.2 °F 26% 29.87 in 10.0 mi South 5.8 mph - N/A   Clear
8:15 PM 53.6 °F - 22.1 °F 29% 29.87 in 10.0 mi SW 3.5 mph - N/A   Clear
8:35 PM 52.5 °F - 21.4 °F 30% 29.88 in 10.0 mi SW 5.8 mph - N/A   Clear
8:55 PM 51.6 °F - 21.9 °F 31% 29.88 in 10.0 mi SW 3.5 mph - N/A   Clear
9:15 PM 50.2 °F - 22.3 °F 34% 29.89 in 10.0 mi SW 5.8 mph - N/A   Clear
9:35 PM 48.9 °F - 22.6 °F 36% 29.89 in 10.0 mi WSW 4.6 mph - N/A   Clear
9:55 PM 48.6 °F - 22.1 °F 35% 29.89 in 10.0 mi SW 5.8 mph - N/A   Clear
10:15 PM 49.1 °F - 21.6 °F 34% 29.89 in 10.0 mi WSW 3.5 mph - N/A   Clear
10:35 PM 46.9 °F - 22.8 °F 39% 29.89 in 10.0 mi West 5.8 mph - N/A   Clear
10:55 PM 45.9 °F 42.3 °F 23.2 °F 41% 29.89 in 10.0 mi WSW 6.9 mph - N/A   Clear
11:15 PM 45.3 °F 42.3 °F 23.4 °F 42% 29.89 in 3.0 mi SW 5.8 mph - N/A   Haze
11:35 PM 43.9 °F 40.5 °F 24.1 °F 46% 29.89 in 10.0 mi WSW 5.8 mph - N/A   Clear
11:55 PM 43.9 °F 38.8 °F 24.6 °F 47% 29.89 in 10.0 mi WSW 9.2 mph - N/A   Clear